Time;durP1;ratioP1;P1;durP2;ratioP2;P2;SDS_P1;SDS_P2;PMS_P1;PMS_P2;Temp;Humidity;BMP_temperature;BMP_pressure;BME280_temperature;BME280_humidity;BME280_pressure;Samples;Min_cycle;Max_cycle;Signal;HPM_P1;HPM_P2
2022/12/21 00:00:23;;;;;;;36.37;27.27;;;2.60;99.90;;;;;;5036897;28;20667;-86
2022/12/21 00:03:31;;;;;;;37.43;28.73;;;2.60;99.90;;;;;;5037260;28;20233;-86
2022/12/21 00:05:57;;;;;;;36.37;28.13;;;2.50;99.90;;;;;;5036669;28;20209;-86
2022/12/21 00:08:23;;;;;;;44.47;30.70;;;2.50;99.90;;;;;;5036981;28;20178;-86
2022/12/21 00:10:48;;;;;;;35.70;27.03;;;2.50;99.90;;;;;;5037435;28;20178;-86
2022/12/21 00:13:17;;;;;;;34.77;26.53;;;2.50;99.90;;;;;;5036533;28;20182;-86
2022/12/21 00:15:44;;;;;;;33.50;27.20;;;2.50;99.90;;;;;;5036405;28;20206;-86
2022/12/21 00:18:10;;;;;;;32.73;25.20;;;2.50;99.90;;;;;;5036812;28;20186;-86
2022/12/21 00:20:36;;;;;;;32.93;25.77;;;2.60;99.90;;;;;;5036351;28;20186;-86
2022/12/21 00:23:02;;;;;;;41.60;30.10;;;2.50;99.90;;;;;;5036519;28;20202;-86
2022/12/21 00:25:27;;;;;;;32.97;25.67;;;2.40;99.90;;;;;;5036149;28;20213;-86
2022/12/21 00:27:53;;;;;;;33.43;26.00;;;2.40;99.90;;;;;;5037274;28;20166;-86
2022/12/21 00:30:18;;;;;;;37.30;28.00;;;2.30;99.90;;;;;;5036205;28;20182;-86
2022/12/21 00:32:44;;;;;;;40.70;29.97;;;2.40;99.90;;;;;;5037013;28;20174;-86
2022/12/21 00:35:09;;;;;;;34.00;27.13;;;2.40;99.90;;;;;;5036411;28;20255;-86
2022/12/21 00:37:35;;;;;;;37.03;27.83;;;2.40;99.90;;;;;;5036244;28;20182;-86
2022/12/21 00:40:00;;;;;;;38.37;28.77;;;2.30;99.90;;;;;;5036089;28;20263;-86
2022/12/21 00:42:26;;;;;;;37.10;29.17;;;2.40;99.90;;;;;;5053714;28;20182;-86
2022/12/21 00:44:51;;;;;;;40.57;30.57;;;2.30;99.90;;;;;;5035905;28;20185;-86
2022/12/21 00:47:17;;;;;;;37.90;27.83;;;2.20;99.90;;;;;;5035951;28;20189;-86
2022/12/21 00:49:43;;;;;;;32.00;26.10;;;2.30;99.90;;;;;;5035887;28;20190;-86
2022/12/21 00:52:08;;;;;;;38.57;27.90;;;2.40;99.90;;;;;;5036255;28;20178;-86
2022/12/21 00:54:34;;;;;;;47.13;29.40;;;2.40;99.90;;;;;;5035900;28;20192;-86
2022/12/21 00:56:59;;;;;;;37.33;28.10;;;2.50;99.90;;;;;;5036099;28;20212;-86
2022/12/21 00:59:25;;;;;;;36.73;26.87;;;2.50;99.90;;;;;;5036131;28;20178;-86
2022/12/21 01:01:50;;;;;;;36.67;26.63;;;2.50;99.90;;;;;;5036069;28;20182;-86
2022/12/21 01:04:16;;;;;;;39.80;29.00;;;2.50;99.90;;;;;;5035657;28;20208;-86
2022/12/21 01:06:41;;;;;;;33.17;26.10;;;2.40;99.90;;;;;;5035561;28;20202;-86
2022/12/21 01:09:07;;;;;;;35.20;27.70;;;2.50;99.90;;;;;;5036446;28;20178;-86
2022/12/21 01:11:33;;;;;;;38.23;28.23;;;2.50;99.90;;;;;;5035931;28;20170;-86
2022/12/21 01:13:59;;;;;;;38.47;28.40;;;2.50;99.90;;;;;;5053462;28;20269;-86
2022/12/21 01:16:31;;;;;;;34.97;26.17;;;2.40;99.90;;;;;;5035944;28;20206;-86
2022/12/21 01:18:58;;;;;;;35.67;26.53;;;2.40;99.90;;;;;;5035567;28;20199;-86
2022/12/21 01:21:28;;;;;;;38.00;26.93;;;2.50;99.90;;;;;;5035844;28;20185;-86
2022/12/21 01:23:55;;;;;;;38.37;26.67;;;2.50;99.90;;;;;;5035540;28;20205;-86
2022/12/21 01:26:21;;;;;;;38.53;27.47;;;2.50;99.90;;;;;;5053144;28;20256;-86
2022/12/21 01:28:47;;;;;;;37.13;27.83;;;2.50;99.90;;;;;;5035421;28;20185;-86
2022/12/21 01:31:13;;;;;;;34.93;26.83;;;2.40;99.90;;;;;;5035424;28;20273;-86
2022/12/21 01:33:39;;;;;;;43.20;27.50;;;2.40;99.90;;;;;;5039566;28;20220;-86
2022/12/21 01:36:10;;;;;;;39.43;27.50;;;2.50;99.90;;;;;;5039414;28;20213;-86
2022/12/21 01:38:39;;;;;;;41.27;29.53;;;2.40;99.90;;;;;;5039480;28;20186;-86
2022/12/21 01:41:06;;;;;;;49.93;30.70;;;2.40;99.90;;;;;;5039426;28;20210;-86
2022/12/21 01:43:40;;;;;;;53.33;31.43;;;2.40;99.90;;;;;;5039825;28;20210;-86
2022/12/21 01:46:14;;;;;;;47.77;30.50;;;2.40;99.90;;;;;;5039207;28;20196;-86
2022/12/21 01:48:44;;;;;;;44.43;28.27;;;2.40;99.90;;;;;;5039430;28;20170;-86
2022/12/21 01:51:12;;;;;;;41.03;30.20;;;2.40;99.90;;;;;;5040207;28;20595;-86
2022/12/21 01:54:01;;;;;;;45.13;29.53;;;2.40;99.90;;;;;;5039532;28;20213;-86
2022/12/21 01:56:34;;;;;;;40.07;28.10;;;2.40;99.90;;;;;;5039110;28;20292;-86
2022/12/21 01:59:08;;;;;;;42.70;28.53;;;2.50;99.90;;;;;;5039279;28;20170;-86
2022/12/21 02:01:34;;;;;;;35.53;25.97;;;2.50;99.90;;;;;;5039092;28;20175;-86
2022/12/21 02:04:00;;;;;;;42.53;27.30;;;2.50;99.90;;;;;;5038910;28;20239;-86
2022/12/21 02:06:45;;;;;;;39.90;28.03;;;2.50;99.90;;;;;;5038765;28;20202;-86
2022/12/21 02:09:14;;;;;;;42.47;28.50;;;2.40;99.90;;;;;;5039836;28;20167;-86
2022/12/21 02:11:40;;;;;;;41.00;29.87;;;2.40;99.90;;;;;;5038858;28;20185;-86
2022/12/21 02:14:14;;;;;;;39.33;27.90;;;2.40;99.90;;;;;;5039204;28;20182;-86
2022/12/21 02:17:01;;;;;;;35.87;27.40;;;2.40;99.90;;;;;;5038747;28;20198;-86
2022/12/21 02:19:32;;;;;;;38.93;28.13;;;2.40;99.90;;;;;;5056896;28;20265;-86
2022/12/21 02:22:07;;;;;;;34.30;27.37;;;2.40;99.90;;;;;;5038735;28;20271;-86
2022/12/21 02:25:01;;;;;;;37.60;26.87;;;2.40;99.90;;;;;;5056699;28;20201;-86
2022/12/21 02:28:04;;;;;;;34.67;26.90;;;2.40;99.90;;;;;;5038473;28;20280;-86
2022/12/21 02:31:18;;;;;;;34.27;24.73;;;2.50;99.90;;;;;;5038494;28;20264;-86
2022/12/21 02:34:17;;;;;;;36.70;25.93;;;2.50;99.90;;;;;;5025356;28;20285;-86
2022/12/21 02:36:59;;;;;;;31.07;24.27;;;2.40;99.90;;;;;;5056429;28;20217;-86
2022/12/21 02:39:30;;;;;;;33.20;25.70;;;2.40;99.90;;;;;;5039300;28;20174;-86
2022/12/21 02:44:12;;;;;;;34.53;24.67;;;2.40;99.90;;;;;;5039483;28;20187;-86
2022/12/21 02:45:20;;;;;;;32.20;25.07;;;2.40;99.90;;;;;;5055762;28;20181;-86
2022/12/21 02:48:00;;;;;;;35.30;26.40;;;2.40;99.90;;;;;;5039122;28;20167;-86
2022/12/21 02:50:32;;;;;;;30.40;24.07;;;2.40;99.90;;;;;;5038266;28;20261;-86
2022/12/21 02:53:03;;;;;;;31.40;24.97;;;2.40;99.90;;;;;;5039029;28;20565;-86
2022/12/21 02:55:29;;;;;;;28.33;23.63;;;2.50;99.90;;;;;;5038111;28;20302;-86
2022/12/21 02:58:23;;;;;;;29.97;23.60;;;2.50;99.90;;;;;;5038312;28;20216;-86
2022/12/21 03:00:51;;;;;;;29.63;22.37;;;2.50;99.90;;;;;;5038309;28;20174;-86
2022/12/21 03:06:16;;;;;;;30.00;23.17;;;2.50;99.90;;;;;;5055771;28;20732;-86
2022/12/21 03:08:56;;;;;;;31.10;24.83;;;2.50;99.90;;;;;;5037779;28;20631;-86
2022/12/21 03:11:30;;;;;;;27.97;23.00;;;2.40;99.90;;;;;;5038857;28;20247;-86
2022/12/21 03:14:07;;;;;;;28.13;22.70;;;2.40;99.90;;;;;;5037742;28;20186;-86
2022/12/21 03:16:51;;;;;;;27.33;22.67;;;2.40;99.90;;;;;;5038453;28;20249;-86
2022/12/21 03:19:30;;;;;;;25.93;22.43;;;2.40;99.90;;;;;;5037593;28;20190;-86
2022/12/21 03:22:04;;;;;;;27.37;22.53;;;2.40;99.90;;;;;;5037577;28;20186;-86
2022/12/21 03:24:44;;;;;;;27.40;21.57;;;2.40;99.90;;;;;;5037533;28;20579;-86
2022/12/21 03:27:44;;;;;;;25.90;22.10;;;2.40;99.90;;;;;;5037372;28;20217;-86
2022/12/21 03:30:15;;;;;;;27.97;23.67;;;2.50;99.90;;;;;;5037349;28;20593;-86
2022/12/21 03:33:02;;;;;;;25.83;22.47;;;2.40;99.90;;;;;;5037448;28;20554;-86
2022/12/21 03:35:46;;;;;;;26.97;22.00;;;2.40;99.90;;;;;;5037224;28;20202;-86
2022/12/21 03:38:21;;;;;;;25.90;21.77;;;2.40;99.90;;;;;;5037890;28;20174;-86
2022/12/21 03:40:51;;;;;;;24.70;21.20;;;2.40;99.90;;;;;;5038077;28;20178;-87
2022/12/21 03:43:23;;;;;;;25.63;21.87;;;2.40;99.90;;;;;;5037048;28;20209;-87
2022/12/21 03:46:14;;;;;;;25.87;21.97;;;2.50;99.90;;;;;;5037091;28;20190;-87
2022/12/21 03:48:49;;;;;;;25.13;21.17;;;2.50;99.90;;;;;;5037980;28;20167;-87
2022/12/21 03:51:31;;;;;;;27.13;22.83;;;2.50;99.90;;;;;;5037932;28;20170;-87
2022/12/21 03:54:18;;;;;;;25.40;21.33;;;2.40;99.90;;;;;;5036925;28;20178;-87
2022/12/21 03:56:44;;;;;;;25.40;21.33;;;2.50;99.90;;;;;;5036323;28;20198;-87
2022/12/21 03:59:13;;;;;;;24.93;22.13;;;2.50;99.90;;;;;;5036907;28;20521;-87
2022/12/21 04:01:47;;;;;;;24.97;21.03;;;2.50;99.90;;;;;;5054922;28;20238;-87
2022/12/21 04:04:25;;;;;;;27.50;21.80;;;2.50;99.90;;;;;;5037290;28;20210;-87
2022/12/21 04:06:54;;;;;;;33.57;26.20;;;2.50;99.90;;;;;;5054853;28;20198;-86
2022/12/21 04:09:21;;;;;;;27.07;22.77;;;2.40;99.90;;;;;;5054494;28;20180;-86
2022/12/21 04:14:30;;;;;;;26.03;21.60;;;2.50;99.90;;;;;;5054665;28;20193;-87
2022/12/21 04:16:56;;;;;;;24.57;21.73;;;2.40;99.90;;;;;;5036568;28;20677;-86
2022/12/21 04:22:06;;;;;;;25.77;22.43;;;2.50;99.90;;;;;;5054835;28;20181;-87
2022/12/21 04:29:59;;;;;;;58.13;40.33;;;2.60;99.90;;;;;;5054452;28;20166;-86
2022/12/21 04:32:25;;;;;;;45.10;33.70;;;2.70;99.90;;;;;;5037050;28;20174;-86
2022/12/21 04:34:51;;;;;;;41.27;31.77;;;2.70;99.90;;;;;;5036394;28;20182;-86
2022/12/21 04:37:31;;;;;;;49.23;36.50;;;2.80;99.90;;;;;;5036454;28;20265;-86
2022/12/21 04:39:58;;;;;;;43.73;33.50;;;2.80;99.90;;;;;;5037005;28;20178;-86
2022/12/21 04:42:24;;;;;;;36.20;29.03;;;2.70;99.90;;;;;;5035961;28;20182;-86
2022/12/21 04:44:50;;;;;;;33.33;26.80;;;2.70;99.90;;;;;;5036834;28;20192;-86
2022/12/21 04:47:16;;;;;;;29.17;23.83;;;2.70;99.90;;;;;;5053871;28;20680;-86
2022/12/21 04:49:41;;;;;;;27.30;22.60;;;2.70;99.90;;;;;;5036836;28;20182;-86
2022/12/21 04:52:07;;;;;;;28.90;23.93;;;2.70;99.90;;;;;;5037015;28;20185;-86
2022/12/21 04:54:33;;;;;;;35.63;28.43;;;2.70;99.90;;;;;;5035848;28;20196;-86
2022/12/21 04:56:58;;;;;;;38.93;29.90;;;2.60;99.90;;;;;;5036099;28;20674;-86
2022/12/21 04:59:24;;;;;;;32.03;26.07;;;2.50;99.90;;;;;;5035773;28;20193;-86
2022/12/21 05:01:50;;;;;;;35.30;27.33;;;2.40;99.90;;;;;;5035764;28;20591;-86
2022/12/21 05:04:15;;;;;;;39.37;30.37;;;2.40;99.90;;;;;;5036600;28;20206;-86
2022/12/21 05:06:41;;;;;;;29.23;25.00;;;2.40;99.90;;;;;;5053024;28;20190;-87
2022/12/21 05:09:07;;;;;;;29.70;25.17;;;2.50;99.90;;;;;;5036105;28;20178;-87
2022/12/21 05:11:33;;;;;;;28.73;24.83;;;2.50;99.90;;;;;;5035936;28;20259;-87
2022/12/21 05:13:59;;;;;;;29.33;24.57;;;2.60;99.90;;;;;;5053506;28;20182;-87
2022/12/21 05:16:25;;;;;;;28.50;23.30;;;2.60;99.90;;;;;;5035458;28;20202;-83
2022/12/21 05:18:52;;;;;;;28.57;24.13;;;2.60;99.90;;;;;;5036410;28;20178;-87
2022/12/21 05:21:18;;;;;;;29.47;23.97;;;2.60;99.90;;;;;;5053801;28;20174;-86
2022/12/21 05:23:45;;;;;;;27.57;23.23;;;2.60;99.90;;;;;;5035693;28;20665;-86
2022/12/21 05:26:11;;;;;;;28.13;23.43;;;2.40;99.90;;;;;;5035363;28;20243;-86
2022/12/21 05:28:37;;;;;;;30.10;25.80;;;2.40;99.90;;;;;;5035895;28;20529;-86
2022/12/21 05:31:04;;;;;;;28.67;25.10;;;2.50;99.90;;;;;;5035775;28;20188;-86
2022/12/21 05:33:30;;;;;;;64.87;51.10;;;2.50;99.90;;;;;;5035705;28;20190;-86
2022/12/21 05:35:56;;;;;;;27.77;24.73;;;2.60;99.90;;;;;;5036012;28;20209;-86
2022/12/21 05:38:21;;;;;;;27.57;24.27;;;2.50;99.90;;;;;;5035837;28;20183;-84
2022/12/21 05:40:48;;;;;;;27.57;24.37;;;2.50;99.90;;;;;;5036492;28;20231;-87
2022/12/21 05:43:14;;;;;;;27.73;24.23;;;2.50;99.90;;;;;;5035718;28;20213;-86
2022/12/21 05:45:40;;;;;;;28.50;25.30;;;2.50;99.90;;;;;;5035698;28;20542;-87
2022/12/21 05:48:05;;;;;;;28.50;23.43;;;2.50;99.90;;;;;;5035287;28;20236;-86
2022/12/21 05:50:31;;;;;;;29.57;23.90;;;2.40;99.90;;;;;;5036030;28;20695;-86
2022/12/21 05:52:56;;;;;;;27.23;23.40;;;2.30;99.90;;;;;;5035698;28;20180;-84
2022/12/21 05:55:22;;;;;;;25.77;22.53;;;2.40;99.90;;;;;;5036162;28;20252;-87
2022/12/21 05:57:48;;;;;;;25.53;21.67;;;2.40;99.90;;;;;;5035269;28;20186;-86
2022/12/21 06:00:14;;;;;;;25.50;21.17;;;2.50;99.90;;;;;;5035247;28;20232;-86
2022/12/21 06:02:40;;;;;;;24.40;21.43;;;2.60;99.90;;;;;;5035343;28;20178;-86
2022/12/21 06:05:06;;;;;;;27.13;22.17;;;2.60;99.90;;;;;;5035922;28;20178;-86
2022/12/21 06:07:32;;;;;;;31.67;23.50;;;2.60;99.90;;;;;;5035553;28;20178;-86
2022/12/21 06:10:49;;;;;;;27.07;22.73;;;2.50;99.90;;;;;;5035066;28;20175;-86
2022/12/21 06:13:27;;;;;;;29.67;24.27;;;2.40;99.90;;;;;;5036118;28;20259;-86
2022/12/21 06:19:03;;;;;;;25.23;21.07;;;2.40;99.90;;;;;;5055324;28;20178;-86
2022/12/21 06:21:34;;;;;;;24.27;21.07;;;2.40;99.90;;;;;;5039594;28;20289;-86
2022/12/21 06:23:59;;;;;;;25.03;21.43;;;2.50;99.90;;;;;;5039504;28;20256;-86
2022/12/21 06:26:25;;;;;;;25.40;21.03;;;2.50;99.90;;;;;;5038647;28;20246;-86
2022/12/21 06:28:52;;;;;;;22.90;20.40;;;2.60;99.90;;;;;;5039445;28;20178;-88
2022/12/21 06:31:19;;;;;;;23.57;20.30;;;2.60;99.90;;;;;;5039427;28;20185;-86
2022/12/21 06:33:45;;;;;;;26.83;22.40;;;2.60;99.90;;;;;;5039112;28;20186;-86
2022/12/21 06:39:32;;;;;;;33.33;26.20;;;2.60;99.90;;;;;;5057066;28;20197;-86
2022/12/21 06:41:58;;;;;;;33.40;25.10;;;2.60;99.90;;;;;;5039466;28;20182;-85
2022/12/21 06:44:37;;;;;;;26.83;21.80;;;2.60;99.90;;;;;;5040270;28;20665;-86
2022/12/21 06:47:02;;;;;;;25.93;21.47;;;2.60;99.90;;;;;;5040000;28;20198;-86
2022/12/21 06:49:28;;;;;;;26.77;22.70;;;2.60;99.90;;;;;;5040109;28;20224;-86
2022/12/21 06:51:54;;;;;;;27.23;22.20;;;2.60;99.90;;;;;;5038641;28;20178;-86
2022/12/21 06:54:19;;;;;;;31.17;24.73;;;2.60;99.90;;;;;;5039033;28;20234;-86
2022/12/21 06:56:56;;;;;;;25.80;21.43;;;2.60;99.90;;;;;;5039034;28;20202;-86
2022/12/21 07:02:44;;;;;;;24.87;21.17;;;2.80;99.90;;;;;;5055877;28;20212;-86
2022/12/21 07:05:10;;;;;;;35.80;29.20;;;2.80;99.90;;;;;;5029355;28;20179;-86
2022/12/21 07:08:11;;;;;;;26.63;22.90;;;2.70;99.90;;;;;;5026659;28;20543;-86
2022/12/21 07:10:40;;;;;;;24.27;21.67;;;2.70;99.90;;;;;;5018816;28;20186;-87
2022/12/21 07:13:13;;;;;;;25.77;22.87;;;2.70;99.90;;;;;;5018319;28;20281;-86
2022/12/21 07:15:38;;;;;;;27.47;24.17;;;2.70;99.90;;;;;;5019853;28;20705;-87
2022/12/21 07:18:04;;;;;;;26.33;22.80;;;2.70;99.90;;;;;;5037668;28;20304;-87
2022/12/21 07:20:30;;;;;;;33.00;26.33;;;2.70;99.90;;;;;;5037244;28;20269;-85
2022/12/21 07:22:55;;;;;;;27.77;23.23;;;2.70;99.90;;;;;;5017877;28;20202;-84
2022/12/21 07:25:21;;;;;;;34.37;25.30;;;2.70;99.90;;;;;;5017745;28;20681;-85
2022/12/21 07:27:54;;;;;;;32.10;25.70;;;2.70;99.90;;;;;;5018206;28;20622;-85
2022/12/21 07:30:20;;;;;;;32.83;26.27;;;2.80;99.90;;;;;;5017324;28;20254;-86
2022/12/21 07:32:53;;;;;;;31.50;23.27;;;2.70;99.90;;;;;;5018011;28;20241;-86
2022/12/21 07:35:28;;;;;;;28.43;22.20;;;2.70;99.90;;;;;;5017451;28;20696;-87
2022/12/21 07:37:59;;;;;;;37.03;29.63;;;2.70;99.90;;;;;;5035503;28;20159;-87
2022/12/21 07:40:49;;;;;;;41.97;32.80;;;2.70;99.90;;;;;;5018293;28;20164;-87
2022/12/21 07:43:14;;;;;;;64.70;33.43;;;2.80;99.90;;;;;;5017307;28;20203;-87
2022/12/21 07:45:41;;;;;;;148.23;36.70;;;2.80;99.90;;;;;;5017595;28;20278;-87
2022/12/21 07:48:06;;;;;;;103.53;36.27;;;2.80;99.90;;;;;;5017809;28;20171;-86
2022/12/21 07:50:32;;;;;;;120.43;37.20;;;2.80;99.90;;;;;;5017623;28;20301;-88
2022/12/21 07:52:58;;;;;;;129.47;34.10;;;2.80;99.90;;;;;;5017585;28;20182;-87
2022/12/21 07:55:38;;;;;;;103.17;34.73;;;2.80;99.90;;;;;;5017426;28;20199;-86
2022/12/21 07:58:03;;;;;;;90.10;35.37;;;2.80;99.90;;;;;;5017904;28;20265;-86
2022/12/21 08:00:29;;;;;;;74.33;32.17;;;2.80;99.90;;;;;;5017152;28;20206;-86
2022/12/21 08:03:05;;;;;;;43.67;26.23;;;2.80;99.90;;;;;;5017592;28;20260;-87
2022/12/21 08:05:31;;;;;;;47.37;26.77;;;2.70;99.90;;;;;;5017790;28;20195;-87
2022/12/21 08:07:58;;;;;;;46.83;27.80;;;2.70;99.90;;;;;;5035963;28;20178;-86
2022/12/21 08:10:24;;;;;;;43.73;25.93;;;2.70;99.90;;;;;;5036706;28;20182;-86
2022/12/21 08:12:50;;;;;;;42.03;26.87;;;2.70;99.90;;;;;;5018849;28;20190;-86
2022/12/21 08:15:16;;;;;;;33.13;24.07;;;2.80;99.90;;;;;;5016940;28;20564;-86
2022/12/21 08:17:41;;;;;;;37.93;25.17;;;2.90;99.90;;;;;;5032942;28;20190;-86
2022/12/21 08:20:07;;;;;;;33.07;24.80;;;3.00;99.90;;;;;;5037096;28;20190;-86
2022/12/21 08:22:56;;;;;;;31.03;24.57;;;3.00;99.90;;;;;;5021392;28;20183;-86
2022/12/21 08:25:21;;;;;;;67.40;36.80;;;3.00;99.90;;;;;;5016937;28;20206;-86
2022/12/21 08:27:47;;;;;;;69.30;37.67;;;2.90;99.90;;;;;;5016870;28;20179;-86
2022/12/21 08:30:25;;;;;;;62.13;35.07;;;2.80;99.90;;;;;;5017448;28;20179;-87
2022/12/21 08:32:50;;;;;;;47.10;32.43;;;2.90;99.90;;;;;;5017130;28;20243;-86
2022/12/21 08:35:16;;;;;;;51.17;31.00;;;2.80;99.90;;;;;;5016505;28;20214;-86
2022/12/21 08:37:42;;;;;;;64.83;45.13;;;2.80;99.90;;;;;;5016857;28;20194;-85
2022/12/21 08:40:08;;;;;;;46.80;35.80;;;2.90;99.90;;;;;;5016397;28;20183;-85
2022/12/21 08:42:33;;;;;;;36.10;29.63;;;2.80;99.90;;;;;;5016350;28;20221;-85
2022/12/21 08:44:59;;;;;;;36.97;30.63;;;2.90;99.90;;;;;;5028178;28;20267;-85
2022/12/21 08:47:25;;;;;;;42.47;32.10;;;3.00;99.90;;;;;;5021708;28;20179;-84
2022/12/21 08:49:50;;;;;;;44.47;32.47;;;3.00;99.90;;;;;;5019944;28;20185;-84
2022/12/21 08:52:16;;;;;;;36.17;29.23;;;3.00;99.90;;;;;;5024750;28;20508;-84
2022/12/21 08:54:41;;;;;;;45.13;30.10;;;3.00;99.90;;;;;;5016643;28;20179;-85
2022/12/21 08:57:07;;;;;;;38.33;28.93;;;3.00;99.90;;;;;;5026583;28;20198;-84
2022/12/21 08:59:33;;;;;;;42.50;29.37;;;3.10;99.90;;;;;;5035758;28;20273;-85
2022/12/21 09:01:58;;;;;;;43.47;29.87;;;3.10;99.90;;;;;;5035927;28;20186;-85
2022/12/21 09:04:24;;;;;;;53.63;35.60;;;3.10;99.90;;;;;;5036024;28;20198;-84
2022/12/21 09:06:50;;;;;;;37.57;28.17;;;3.00;99.90;;;;;;5036008;28;20260;-84
2022/12/21 09:09:15;;;;;;;38.47;28.40;;;3.10;99.90;;;;;;5036157;28;20170;-85
2022/12/21 09:12:19;;;;;;;36.20;27.30;;;3.10;99.90;;;;;;5030185;28;20756;-87
2022/12/21 09:14:59;;;;;;;37.30;26.90;;;3.10;99.90;;;;;;5017281;28;20171;-81
2022/12/21 09:17:25;;;;;;;36.23;27.90;;;3.20;99.90;;;;;;5017343;28;20183;-85
2022/12/21 09:19:50;;;;;;;37.37;28.27;;;3.10;99.90;;;;;;5016894;28;20653;-85
2022/12/21 09:22:16;;;;;;;39.33;30.70;;;3.10;99.90;;;;;;5017177;28;20224;-85
2022/12/21 09:24:42;;;;;;;38.47;29.53;;;3.10;99.90;;;;;;5016697;28;20198;-85
2022/12/21 09:28:03;;;;;;;33.83;27.27;;;3.20;99.90;;;;;;5024027;28;20214;-85
2022/12/21 09:30:29;;;;;;;34.43;26.60;;;3.20;99.90;;;;;;5036468;28;20247;-85
2022/12/21 09:32:55;;;;;;;32.60;25.60;;;3.30;99.90;;;;;;5021192;28;20186;-85
2022/12/21 09:35:29;;;;;;;39.20;29.03;;;3.30;99.90;;;;;;5015723;28;20210;-85
2022/12/21 09:37:56;;;;;;;31.03;25.80;;;3.20;99.90;;;;;;5016085;28;20182;-85
2022/12/21 09:40:22;;;;;;;40.53;29.93;;;3.30;99.90;;;;;;5016539;28;20209;-86
2022/12/21 09:43:08;;;;;;;40.63;27.33;;;3.30;99.90;;;;;;5015671;28;20214;-86
2022/12/21 09:46:04;;;;;;;61.87;35.10;;;3.30;99.90;;;;;;5015977;28;20198;-86
2022/12/21 09:48:51;;;;;;;37.07;27.43;;;3.20;99.90;;;;;;5033738;28;20181;-86
2022/12/21 09:51:25;;;;;;;42.10;28.30;;;3.20;99.90;;;;;;5035564;28;20182;-86
2022/12/21 09:57:13;;;;;;;48.03;31.23;;;3.20;99.90;;;;;;5056519;28;20204;-86
2022/12/21 09:59:39;;;;;;;43.33;30.90;;;3.30;99.90;;;;;;5040158;28;20182;-86
2022/12/21 10:02:14;;;;;;;52.53;34.00;;;3.30;99.90;;;;;;5034031;28;20221;-86
2022/12/21 10:05:04;;;;;;;43.20;31.43;;;3.30;99.90;;;;;;5020307;28;20198;-86
2022/12/21 10:08:04;;;;;;;48.87;33.03;;;3.30;99.90;;;;;;5020111;28;20269;-86
2022/12/21 10:10:40;;;;;;;52.20;34.83;;;3.20;99.90;;;;;;5019164;28;20313;-86
2022/12/21 10:13:32;;;;;;;43.27;30.67;;;3.30;99.90;;;;;;5019741;28;20190;-87
2022/12/21 10:19:39;;;;;;;45.80;30.17;;;3.20;99.90;;;;;;5047919;28;20173;-86
2022/12/21 10:22:13;;;;;;;45.10;30.40;;;3.30;99.90;;;;;;5022518;28;20200;-86
2022/12/21 10:24:51;;;;;;;39.57;29.40;;;3.40;99.90;;;;;;5033476;28;20198;-86
2022/12/21 10:27:24;;;;;;;38.10;29.20;;;3.40;99.90;;;;;;5018751;28;20225;-86
2022/12/21 10:29:55;;;;;;;43.47;29.63;;;3.40;99.90;;;;;;5033257;28;20186;-86
2022/12/21 10:32:25;;;;;;;39.53;29.23;;;3.40;99.90;;;;;;5022674;28;20178;-86
2022/12/21 10:34:54;;;;;;;40.73;28.40;;;3.40;99.90;;;;;;5025319;28;20182;-86
2022/12/21 10:37:21;;;;;;;38.23;27.87;;;3.40;99.90;;;;;;5038262;28;20214;-86
2022/12/21 10:39:56;;;;;;;47.67;31.00;;;3.40;99.90;;;;;;5038745;28;20214;-86
2022/12/21 10:42:38;;;;;;;43.03;30.07;;;3.40;99.90;;;;;;5023186;28;20213;-87
2022/12/21 10:45:10;;;;;;;47.40;31.50;;;3.40;99.90;;;;;;5026030;28;20178;-86
2022/12/21 10:47:37;;;;;;;39.23;29.17;;;3.30;99.90;;;;;;5027396;28;20175;-84
2022/12/21 10:50:16;;;;;;;34.53;27.00;;;3.30;99.90;;;;;;5033180;28;20178;-85
2022/12/21 10:52:48;;;;;;;36.43;28.13;;;3.40;99.90;;;;;;5024145;28;20261;-85
2022/12/21 10:55:35;;;;;;;52.43;37.90;;;3.40;99.90;;;;;;5048605;28;20229;-85
2022/12/21 10:58:16;;;;;;;44.50;34.87;;;3.40;99.90;;;;;;5026550;28;20171;-85
2022/12/21 11:01:02;;;;;;;35.80;28.97;;;3.50;99.90;;;;;;5056436;28;20159;-84
2022/12/21 11:03:31;;;;;;;36.07;28.77;;;3.60;99.90;;;;;;5036189;28;20201;-84
2022/12/21 11:05:57;;;;;;;32.50;26.97;;;3.70;99.90;;;;;;5024265;28;20669;-85
2022/12/21 11:08:35;;;;;;;30.30;24.97;;;3.70;99.90;;;;;;5024072;28;20194;-84
2022/12/21 11:11:02;;;;;;;30.07;24.97;;;3.80;99.90;;;;;;5022835;28;20700;-85
2022/12/21 11:13:32;;;;;;;29.97;24.37;;;3.80;99.90;;;;;;5037596;28;20235;-82
2022/12/21 11:16:07;;;;;;;40.87;33.03;;;3.80;99.90;;;;;;5038522;28;20202;-85
2022/12/21 11:18:47;;;;;;;38.77;32.23;;;3.80;99.90;;;;;;5031033;28;20192;-85
2022/12/21 11:21:30;;;;;;;43.70;36.53;;;3.80;99.90;;;;;;5038286;28;20269;-86
2022/12/21 11:23:58;;;;;;;34.60;29.33;;;3.70;99.90;;;;;;5025698;28;20203;-85
2022/12/21 11:26:32;;;;;;;37.30;32.00;;;3.80;99.90;;;;;;5050421;28;20214;-86
2022/12/21 11:29:06;;;;;;;32.40;27.60;;;3.90;99.90;;;;;;5021245;28;20221;-86
2022/12/21 11:31:33;;;;;;;33.63;28.73;;;3.90;99.90;;;;;;5037995;28;20178;-86
2022/12/21 11:33:58;;;;;;;33.47;28.10;;;3.90;99.90;;;;;;5026117;28;20190;-86
2022/12/21 11:36:24;;;;;;;46.67;36.83;;;3.90;99.90;;;;;;5031904;28;20206;-86
2022/12/21 11:38:50;;;;;;;42.73;35.13;;;3.90;99.90;;;;;;5021151;28;20221;-86
2022/12/21 11:41:26;;;;;;;44.17;34.97;;;4.00;99.90;;;;;;5033824;28;20191;-86
2022/12/21 11:43:52;;;;;;;58.10;43.93;;;4.10;99.90;;;;;;5018732;28;20199;-85
2022/12/21 11:46:35;;;;;;;41.77;35.07;;;4.00;99.90;;;;;;5030167;28;20202;-86
2022/12/21 11:49:39;;;;;;;37.77;31.23;;;3.90;99.90;;;;;;5020957;28;20187;-86
2022/12/21 11:52:15;;;;;;;34.13;28.60;;;4.00;99.90;;;;;;4991631;28;20194;-86
2022/12/21 11:55:01;;;;;;;41.87;35.10;;;4.10;99.90;;;;;;5017768;28;20191;-86
2022/12/21 11:57:51;;;;;;;104.23;63.63;;;4.10;99.90;;;;;;5022445;28;20204;-86
2022/12/21 12:00:22;;;;;;;79.20;51.80;;;4.20;99.90;;;;;;5029145;28;20205;-86
2022/12/21 12:06:46;;;;;;;74.47;46.03;;;4.30;99.90;;;;;;5041121;28;20210;-85
2022/12/21 12:09:28;;;;;;;58.17;39.20;;;4.40;99.90;;;;;;4988640;28;20194;-85
2022/12/21 12:12:03;;;;;;;47.97;31.20;;;4.40;99.90;;;;;;5017830;28;20175;-86
2022/12/21 12:15:04;;;;;;;42.47;27.60;;;4.50;99.90;;;;;;5034922;28;20189;-86
2022/12/21 12:17:44;;;;;;;39.03;25.77;;;4.40;99.90;;;;;;5016351;28;20201;-86
2022/12/21 12:24:09;;;;;;;34.33;22.63;;;4.60;99.90;;;;;;5034407;28;20229;-86
2022/12/21 12:26:59;;;;;;;29.73;20.23;;;4.60;99.90;;;;;;5016930;28;20308;-86
2022/12/21 12:29:36;;;;;;;27.33;21.27;;;4.70;99.90;;;;;;5016992;28;20548;-86
2022/12/21 12:32:36;;;;;;;36.00;24.03;;;4.70;99.90;;;;;;5016576;28;20709;-86
